sensor_id;sensor_type;location;lat;lon;timestamp;pressure;altitude;pressure_sealevel;temperature;humidity
25759;BME280;13604;52.496;13.456;2023-04-15T00:02:15;100168.78;;;7.38;100.00
25759;BME280;13604;52.496;13.456;2023-04-15T00:04:43;100132.59;;;7.22;100.00
25759;BME280;13604;52.496;13.456;2023-04-15T00:07:08;100143.19;;;7.26;100.00
25759;BME280;13604;52.496;13.456;2023-04-15T00:09:34;100150.16;;;7.27;100.00
25759;BME280;13604;52.496;13.456;2023-04-15T00:11:59;100103.28;;;7.05;100.00
25759;BME280;13604;52.496;13.456;2023-04-15T00:14:24;100155.56;;;7.32;100.00
25759;BME280;13604;52.496;13.456;2023-04-15T00:16:50;100097.38;;;6.89;100.00
25759;BME280;13604;52.496;13.456;2023-04-15T00:19:20;100131.41;;;7.15;100.00
25759;BME280;13604;52.496;13.456;2023-04-15T00:21:45;100122.59;;;7.11;100.00
25759;BME280;13604;52.496;13.456;2023-04-15T00:24:10;100149.84;;;7.21;100.00
25759;BME280;13604;52.496;13.456;2023-04-15T00:26:35;100132.25;;;7.14;100.00
25759;BME280;13604;52.496;13.456;2023-04-15T00:29:01;100151.03;;;7.28;100.00
25759;BME280;13604;52.496;13.456;2023-04-15T00:31:26;100125.34;;;7.14;100.00
25759;BME280;13604;52.496;13.456;2023-04-15T00:33:52;100165.00;;;7.31;100.00
25759;BME280;13604;52.496;13.456;2023-04-15T00:36:17;100132.44;;;7.18;100.00
25759;BME280;13604;52.496;13.456;2023-04-15T00:38:42;100128.88;;;7.16;100.00
25759;BME280;13604;52.496;13.456;2023-04-15T00:41:09;100141.53;;;7.28;100.00
25759;BME280;13604;52.496;13.456;2023-04-15T00:43:34;100121.81;;;7.12;100.00
25759;BME280;13604;52.496;13.456;2023-04-15T00:46:00;100149.22;;;7.27;100.00
25759;BME280;13604;52.496;13.456;2023-04-15T00:48:27;100142.16;;;7.23;100.00
25759;BME280;13604;52.496;13.456;2023-04-15T00:50:53;100140.59;;;7.26;100.00
25759;BME280;13604;52.496;13.456;2023-04-15T00:53:19;100145.03;;;7.29;100.00
25759;BME280;13604;52.496;13.456;2023-04-15T00:55:44;100150.41;;;7.33;100.00
25759;BME280;13604;52.496;13.456;2023-04-15T00:58:09;100147.81;;;7.33;100.00
25759;BME280;13604;52.496;13.456;2023-04-15T01:00:35;100089.97;;;6.97;100.00
25759;BME280;13604;52.496;13.456;2023-04-15T01:03:01;100145.63;;;7.23;100.00
25759;BME280;13604;52.496;13.456;2023-04-15T01:05:27;100109.19;;;7.02;100.00
25759;BME280;13604;52.496;13.456;2023-04-15T01:07:53;100111.28;;;7.09;100.00
25759;BME280;13604;52.496;13.456;2023-04-15T01:10:19;100120.56;;;7.22;100.00
25759;BME280;13604;52.496;13.456;2023-04-15T01:12:45;100139.78;;;7.27;100.00
25759;BME280;13604;52.496;13.456;2023-04-15T01:15:10;100130.16;;;7.25;100.00
25759;BME280;13604;52.496;13.456;2023-04-15T01:17:36;100115.94;;;7.16;100.00
25759;BME280;13604;52.496;13.456;2023-04-15T01:20:02;100101.72;;;7.08;100.00
25759;BME280;13604;52.496;13.456;2023-04-15T01:22:29;100134.75;;;7.30;100.00
25759;BME280;13604;52.496;13.456;2023-04-15T01:25:02;100135.47;;;7.28;100.00
25759;BME280;13604;52.496;13.456;2023-04-15T01:27:30;100119.06;;;7.27;100.00
25759;BME280;13604;52.496;13.456;2023-04-15T01:29:56;100102.75;;;7.12;100.00
25759;BME280;13604;52.496;13.456;2023-04-15T01:32:22;100127.34;;;7.20;100.00
25759;BME280;13604;52.496;13.456;2023-04-15T01:34:48;100108.84;;;7.12;100.00
25759;BME280;13604;52.496;13.456;2023-04-15T01:37:13;100136.28;;;7.27;100.00
25759;BME280;13604;52.496;13.456;2023-04-15T01:39:38;100121.03;;;7.15;100.00
25759;BME280;13604;52.496;13.456;2023-04-15T01:42:04;100098.34;;;7.09;100.00
25759;BME280;13604;52.496;13.456;2023-04-15T01:44:29;100114.38;;;7.20;100.00
25759;BME280;13604;52.496;13.456;2023-04-15T01:46:55;100125.44;;;7.34;100.00
25759;BME280;13604;52.496;13.456;2023-04-15T01:49:20;100119.56;;;7.20;100.00
25759;BME280;13604;52.496;13.456;2023-04-15T01:51:45;100125.28;;;7.31;100.00
25759;BME280;13604;52.496;13.456;2023-04-15T01:54:10;100098.56;;;7.14;100.00
25759;BME280;13604;52.496;13.456;2023-04-15T01:56:36;100113.44;;;7.18;100.00
25759;BME280;13604;52.496;13.456;2023-04-15T01:59:01;100112.09;;;7.26;100.00
25759;BME280;13604;52.496;13.456;2023-04-15T02:01:27;100093.16;;;7.09;100.00
25759;BME280;13604;52.496;13.456;2023-04-15T02:03:53;100123.34;;;7.27;100.00
25759;BME280;13604;52.496;13.456;2023-04-15T02:06:18;100124.31;;;7.29;100.00
25759;BME280;13604;52.496;13.456;2023-04-15T02:08:43;100095.75;;;7.09;100.00
25759;BME280;13604;52.496;13.456;2023-04-15T02:11:09;100092.94;;;7.05;100.00
25759;BME280;13604;52.496;13.456;2023-04-15T02:13:34;100105.66;;;7.18;100.00
25759;BME280;13604;52.496;13.456;2023-04-15T02:16:00;100106.34;;;7.14;100.00
25759;BME280;13604;52.496;13.456;2023-04-15T02:18:25;100105.28;;;7.10;100.00
25759;BME280;13604;52.496;13.456;2023-04-15T02:20:51;100117.81;;;7.19;100.00
25759;BME280;13604;52.496;13.456;2023-04-15T02:23:16;100085.88;;;7.02;100.00
25759;BME280;13604;52.496;13.456;2023-04-15T02:25:42;100120.56;;;7.22;100.00
25759;BME280;13604;52.496;13.456;2023-04-15T02:28:07;100089.47;;;7.04;100.00
25759;BME280;13604;52.496;13.456;2023-04-15T02:30:32;100087.69;;;7.03;100.00
25759;BME280;13604;52.496;13.456;2023-04-15T02:32:59;100078.00;;;6.99;100.00
25759;BME280;13604;52.496;13.456;2023-04-15T02:35:25;100095.13;;;6.97;100.00
25759;BME280;13604;52.496;13.456;2023-04-15T02:37:51;100098.56;;;7.14;100.00
25759;BME280;13604;52.496;13.456;2023-04-15T02:40:16;100122.31;;;7.23;100.00
25759;BME280;13604;52.496;13.456;2023-04-15T02:42:42;100109.88;;;7.16;100.00
25759;BME280;13604;52.496;13.456;2023-04-15T02:45:09;100092.56;;;7.15;100.00
25759;BME280;13604;52.496;13.456;2023-04-15T02:47:34;100101.44;;;7.20;100.00
25759;BME280;13604;52.496;13.456;2023-04-15T02:50:02;100129.84;;;7.36;100.00
25759;BME280;13604;52.496;13.456;2023-04-15T02:52:27;100121.94;;;7.33;100.00
25759;BME280;13604;52.496;13.456;2023-04-15T02:54:53;100109.44;;;7.25;100.00
25759;BME280;13604;52.496;13.456;2023-04-15T02:57:21;100121.44;;;7.41;100.00
25759;BME280;13604;52.496;13.456;2023-04-15T02:59:47;100085.00;;;7.19;100.00
25759;BME280;13604;52.496;13.456;2023-04-15T03:02:12;100115.94;;;7.34;100.00
25759;BME280;13604;52.496;13.456;2023-04-15T03:04:37;100187.75;;;7.37;100.00
25759;BME280;13604;52.496;13.456;2023-04-15T03:07:03;100104.84;;;7.19;100.00
25759;BME280;13604;52.496;13.456;2023-04-15T03:09:29;100130.75;;;7.37;100.00
25759;BME280;13604;52.496;13.456;2023-04-15T03:11:55;100110.75;;;7.34;100.00
25759;BME280;13604;52.496;13.456;2023-04-15T03:14:21;100132.91;;;7.46;100.00
25759;BME280;13604;52.496;13.456;2023-04-15T03:16:46;100112.91;;;7.43;100.00
25759;BME280;13604;52.496;13.456;2023-04-15T03:19:11;100112.81;;;7.42;100.00
25759;BME280;13604;52.496;13.456;2023-04-15T03:21:37;100119.88;;;7.44;100.00
25759;BME280;13604;52.496;13.456;2023-04-15T03:24:02;100100.25;;;7.31;100.00
25759;BME280;13604;52.496;13.456;2023-04-15T03:26:31;100121.66;;;7.45;100.00
25759;BME280;13604;52.496;13.456;2023-04-15T03:28:56;100082.13;;;7.31;100.00
25759;BME280;13604;52.496;13.456;2023-04-15T03:31:22;100123.72;;;7.52;100.00
25759;BME280;13604;52.496;13.456;2023-04-15T03:33:48;100093.38;;;7.32;100.00
25759;BME280;13604;52.496;13.456;2023-04-15T03:36:13;100134.38;;;7.59;100.00
25759;BME280;13604;52.496;13.456;2023-04-15T03:38:38;100130.00;;;7.58;100.00
25759;BME280;13604;52.496;13.456;2023-04-15T03:41:04;100139.84;;;7.65;100.00
25759;BME280;13604;52.496;13.456;2023-04-15T03:43:29;100112.47;;;7.52;100.00
25759;BME280;13604;52.496;13.456;2023-04-15T03:45:54;100098.41;;;7.47;100.00
25759;BME280;13604;52.496;13.456;2023-04-15T03:48:20;100115.31;;;7.58;100.00
25759;BME280;13604;52.496;13.456;2023-04-15T03:50:45;100113.50;;;7.55;100.00
25759;BME280;13604;52.496;13.456;2023-04-15T03:53:11;100110.53;;;7.48;100.00
25759;BME280;13604;52.496;13.456;2023-04-15T03:55:36;100073.47;;;7.31;100.00
25759;BME280;13604;52.496;13.456;2023-04-15T03:58:02;100133.69;;;7.63;100.00
25759;BME280;13604;52.496;13.456;2023-04-15T04:00:27;100131.94;;;7.62;100.00
25759;BME280;13604;52.496;13.456;2023-04-15T04:02:52;100125.09;;;7.64;100.00
25759;BME280;13604;52.496;13.456;2023-04-15T04:05:18;100112.72;;;7.58;100.00
25759;BME280;13604;52.496;13.456;2023-04-15T04:07:43;100138.53;;;7.74;100.00
25759;BME280;13604;52.496;13.456;2023-04-15T04:10:08;100144.94;;;7.81;100.00
25759;BME280;13604;52.496;13.456;2023-04-15T04:12:34;100134.56;;;7.81;100.00
25759;BME280;13604;52.496;13.456;2023-04-15T04:14:59;100126.28;;;7.70;100.00
25759;BME280;13604;52.496;13.456;2023-04-15T04:17:24;100148.03;;;7.74;100.00
25759;BME280;13604;52.496;13.456;2023-04-15T04:19:50;100130.50;;;7.68;100.00
25759;BME280;13604;52.496;13.456;2023-04-15T04:22:15;100111.84;;;7.58;100.00
25759;BME280;13604;52.496;13.456;2023-04-15T04:24:40;100118.13;;;7.63;100.00
25759;BME280;13604;52.496;13.456;2023-04-15T04:27:06;100152.75;;;7.83;100.00
25759;BME280;13604;52.496;13.456;2023-04-15T04:29:31;100091.44;;;7.46;100.00
25759;BME280;13604;52.496;13.456;2023-04-15T04:31:56;100122.38;;;7.61;100.00
25759;BME280;13604;52.496;13.456;2023-04-15T04:34:22;100118.44;;;7.69;100.00
25759;BME280;13604;52.496;13.456;2023-04-15T04:36:47;100134.50;;;7.80;100.00
25759;BME280;13604;52.496;13.456;2023-04-15T04:39:12;100149.88;;;7.95;100.00
25759;BME280;13604;52.496;13.456;2023-04-15T04:41:38;100142.09;;;7.95;100.00
25759;BME280;13604;52.496;13.456;2023-04-15T04:44:03;100119.81;;;7.80;100.00
25759;BME280;13604;52.496;13.456;2023-04-15T04:46:28;100109.38;;;7.79;100.00
25759;BME280;13604;52.496;13.456;2023-04-15T04:48:53;100125.06;;;7.82;100.00
25759;BME280;13604;52.496;13.456;2023-04-15T04:51:19;100146.44;;;7.96;100.00
25759;BME280;13604;52.496;13.456;2023-04-15T04:53:44;100151.19;;;8.04;100.00
25759;BME280;13604;52.496;13.456;2023-04-15T04:56:10;100135.34;;;7.98;100.00
25759;BME280;13604;52.496;13.456;2023-04-15T04:58:35;100146.72;;;8.02;100.00
25759;BME280;13604;52.496;13.456;2023-04-15T05:01:00;100147.97;;;8.10;100.00
25759;BME280;13604;52.496;13.456;2023-04-15T05:03:27;100144.28;;;8.05;100.00
25759;BME280;13604;52.496;13.456;2023-04-15T05:05:52;100172.75;;;8.23;100.00
25759;BME280;13604;52.496;13.456;2023-04-15T05:08:19;100144.28;;;8.05;100.00
25759;BME280;13604;52.496;13.456;2023-04-15T05:10:44;100146.66;;;8.00;100.00
25759;BME280;13604;52.496;13.456;2023-04-15T05:13:09;100136.44;;;8.03;100.00
25759;BME280;13604;52.496;13.456;2023-04-15T05:15:35;100153.16;;;8.10;100.00
25759;BME280;13604;52.496;13.456;2023-04-15T05:18:01;100160.13;;;8.11;100.00
25759;BME280;13604;52.496;13.456;2023-04-15T05:20:26;100165.97;;;8.07;100.00
25759;BME280;13604;52.496;13.456;2023-04-15T05:22:52;100151.91;;;8.02;100.00
25759;BME280;13604;52.496;13.456;2023-04-15T05:25:17;100169.06;;;8.18;100.00
25759;BME280;13604;52.496;13.456;2023-04-15T05:27:43;100172.31;;;8.14;100.00
25759;BME280;13604;52.496;13.456;2023-04-15T05:30:08;100154.19;;;8.14;100.00
25759;BME280;13604;52.496;13.456;2023-04-15T05:32:34;100169.31;;;8.24;100.00
25759;BME280;13604;52.496;13.456;2023-04-15T05:34:59;100174.00;;;8.31;100.00
25759;BME280;13604;52.496;13.456;2023-04-15T05:37:24;100163.41;;;8.26;100.00
25759;BME280;13604;52.496;13.456;2023-04-15T05:39:50;100174.13;;;8.34;100.00
25759;BME280;13604;52.496;13.456;2023-04-15T05:42:16;100150.56;;;8.29;100.00
25759;BME280;13604;52.496;13.456;2023-04-15T05:44:41;100189.81;;;8.55;100.00
25759;BME280;13604;52.496;13.456;2023-04-15T05:47:06;100181.19;;;8.56;100.00
25759;BME280;13604;52.496;13.456;2023-04-15T05:49:32;100168.22;;;8.56;100.00
25759;BME280;13604;52.496;13.456;2023-04-15T05:51:58;100133.25;;;8.48;100.00
25759;BME280;13604;52.496;13.456;2023-04-15T05:54:23;100154.06;;;8.69;100.00
25759;BME280;13604;52.496;13.456;2023-04-15T05:56:49;100153.25;;;8.70;100.00
25759;BME280;13604;52.496;13.456;2023-04-15T05:59:14;100170.44;;;8.88;100.00
25759;BME280;13604;52.496;13.456;2023-04-15T06:01:39;100183.63;;;9.13;100.00
25759;BME280;13604;52.496;13.456;2023-04-15T06:04:05;100181.09;;;9.15;100.00
25759;BME280;13604;52.496;13.456;2023-04-15T06:06:30;100159.88;;;9.04;100.00
25759;BME280;13604;52.496;13.456;2023-04-15T06:08:56;100161.66;;;9.05;100.00
25759;BME280;13604;52.496;13.456;2023-04-15T06:11:22;100184.00;;;9.23;100.00
25759;BME280;13604;52.496;13.456;2023-04-15T06:13:47;100156.66;;;9.10;100.00
25759;BME280;13604;52.496;13.456;2023-04-15T06:16:12;100148.09;;;9.12;100.00
25759;BME280;13604;52.496;13.456;2023-04-15T06:18:38;100187.81;;;9.31;100.00
25759;BME280;13604;52.496;13.456;2023-04-15T06:21:03;100153.47;;;9.17;100.00
25759;BME280;13604;52.496;13.456;2023-04-15T06:23:30;100175.38;;;9.45;100.00
25759;BME280;13604;52.496;13.456;2023-04-15T06:25:55;100164.31;;;9.28;100.00
25759;BME280;13604;52.496;13.456;2023-04-15T06:28:21;100195.25;;;9.65;100.00
25759;BME280;13604;52.496;13.456;2023-04-15T06:30:46;100170.28;;;9.69;100.00
25759;BME280;13604;52.496;13.456;2023-04-15T06:33:11;100166.50;;;9.83;100.00
25759;BME280;13604;52.496;13.456;2023-04-15T06:35:37;100157.75;;;9.81;100.00
25759;BME280;13604;52.496;13.456;2023-04-15T06:38:03;100154.34;;;9.82;100.00
25759;BME280;13604;52.496;13.456;2023-04-15T06:40:28;100198.91;;;9.91;100.00
25759;BME280;13604;52.496;13.456;2023-04-15T06:42:53;100175.56;;;9.70;100.00
25759;BME280;13604;52.496;13.456;2023-04-15T06:45:19;100199.06;;;9.96;100.00
25759;BME280;13604;52.496;13.456;2023-04-15T06:47:44;100178.34;;;9.98;100.00
25759;BME280;13604;52.496;13.456;2023-04-15T06:50:09;100207.53;;;10.36;100.00
25759;BME280;13604;52.496;13.456;2023-04-15T06:52:35;100178.66;;;10.29;98.39
25759;BME280;13604;52.496;13.456;2023-04-15T06:55:00;100183.84;;;10.52;97.94
25759;BME280;13604;52.496;13.456;2023-04-15T06:57:26;100194.00;;;10.68;96.32
25759;BME280;13604;52.496;13.456;2023-04-15T06:59:53;100212.16;;;10.91;95.99
25759;BME280;13604;52.496;13.456;2023-04-15T07:02:18;100209.78;;;10.97;94.13
25759;BME280;13604;52.496;13.456;2023-04-15T07:04:44;100215.09;;;11.00;93.36
25759;BME280;13604;52.496;13.456;2023-04-15T07:07:09;100208.09;;;10.99;91.98
25759;BME280;13604;52.496;13.456;2023-04-15T07:09:34;100228.66;;;10.92;92.13
25759;BME280;13604;52.496;13.456;2023-04-15T07:11:59;100223.56;;;10.69;92.18
25759;BME280;13604;52.496;13.456;2023-04-15T07:14:25;100234.28;;;10.78;93.32
25759;BME280;13604;52.496;13.456;2023-04-15T07:16:50;100210.63;;;10.48;93.66
25759;BME280;13604;52.496;13.456;2023-04-15T07:19:16;100237.78;;;10.55;94.39
25759;BME280;13604;52.496;13.456;2023-04-15T07:21:41;100203.28;;;10.38;95.62
25759;BME280;13604;52.496;13.456;2023-04-15T07:24:06;100219.09;;;10.21;96.28
25759;BME280;13604;52.496;13.456;2023-04-15T07:26:32;100234.94;;;10.48;95.47
25759;BME280;13604;52.496;13.456;2023-04-15T07:28:57;100255.59;;;10.23;94.28
25759;BME280;13604;52.496;13.456;2023-04-15T07:31:22;100256.56;;;10.25;95.85
25759;BME280;13604;52.496;13.456;2023-04-15T07:33:47;100235.31;;;10.14;96.02
25759;BME280;13604;52.496;13.456;2023-04-15T07:36:13;100251.88;;;10.16;97.27
25759;BME280;13604;52.496;13.456;2023-04-15T07:38:39;100257.97;;;9.94;98.76
25759;BME280;13604;52.496;13.456;2023-04-15T07:41:04;100243.31;;;9.75;99.77
25759;BME280;13604;52.496;13.456;2023-04-15T07:43:30;100237.44;;;9.58;100.00
25759;BME280;13604;52.496;13.456;2023-04-15T07:45:55;100240.78;;;9.55;100.00
25759;BME280;13604;52.496;13.456;2023-04-15T07:48:20;100241.44;;;9.50;100.00
25759;BME280;13604;52.496;13.456;2023-04-15T07:50:46;100231.38;;;9.57;100.00
25759;BME280;13604;52.496;13.456;2023-04-15T07:53:11;100255.56;;;9.77;100.00
25759;BME280;13604;52.496;13.456;2023-04-15T07:55:36;100245.56;;;9.66;100.00
25759;BME280;13604;52.496;13.456;2023-04-15T07:58:01;100251.19;;;9.55;100.00
25759;BME280;13604;52.496;13.456;2023-04-15T08:00:27;100251.38;;;9.60;100.00
25759;BME280;13604;52.496;13.456;2023-04-15T08:02:52;100270.25;;;9.75;100.00
25759;BME280;13604;52.496;13.456;2023-04-15T08:05:18;100263.84;;;9.67;100.00
25759;BME280;13604;52.496;13.456;2023-04-15T08:07:43;100269.31;;;9.75;100.00
25759;BME280;13604;52.496;13.456;2023-04-15T08:10:09;100237.97;;;9.49;100.00
25759;BME280;13604;52.496;13.456;2023-04-15T08:12:35;100254.25;;;9.66;100.00
25759;BME280;13604;52.496;13.456;2023-04-15T08:15:01;100251.03;;;9.51;100.00
25759;BME280;13604;52.496;13.456;2023-04-15T08:17:26;100274.72;;;9.58;100.00
25759;BME280;13604;52.496;13.456;2023-04-15T08:19:52;100277.72;;;9.68;100.00
25759;BME280;13604;52.496;13.456;2023-04-15T08:22:18;100249.09;;;9.47;100.00
25759;BME280;13604;52.496;13.456;2023-04-15T08:24:43;100288.94;;;9.67;100.00
25759;BME280;13604;52.496;13.456;2023-04-15T08:27:08;100243.22;;;9.30;100.00
25759;BME280;13604;52.496;13.456;2023-04-15T08:29:34;100251.00;;;9.30;100.00
25759;BME280;13604;52.496;13.456;2023-04-15T08:32:00;100263.22;;;9.32;100.00
25759;BME280;13604;52.496;13.456;2023-04-15T08:34:25;100272.56;;;9.48;100.00
25759;BME280;13604;52.496;13.456;2023-04-15T08:36:51;100268.56;;;9.56;100.00
25759;BME280;13604;52.496;13.456;2023-04-15T08:39:16;100250.63;;;9.42;100.00
25759;BME280;13604;52.496;13.456;2023-04-15T08:41:45;100281.13;;;9.67;100.00
25759;BME280;13604;52.496;13.456;2023-04-15T08:44:14;100296.31;;;9.77;100.00
25759;BME280;13604;52.496;13.456;2023-04-15T08:46:40;100285.66;;;9.71;100.00
25759;BME280;13604;52.496;13.456;2023-04-15T08:49:11;100306.38;;;9.90;100.00
25759;BME280;13604;52.496;13.456;2023-04-15T08:51:39;100253.66;;;9.73;100.00
25759;BME280;13604;52.496;13.456;2023-04-15T08:54:09;100284.66;;;9.90;100.00
25759;BME280;13604;52.496;13.456;2023-04-15T08:56:35;100294.69;;;10.02;100.00
25759;BME280;13604;52.496;13.456;2023-04-15T08:59:02;100281.19;;;9.89;100.00
25759;BME280;13604;52.496;13.456;2023-04-15T09:01:28;100296.13;;;10.16;100.00
25759;BME280;13604;52.496;13.456;2023-04-15T09:03:55;100288.31;;;10.37;100.00
25759;BME280;13604;52.496;13.456;2023-04-15T09:06:21;100297.78;;;10.58;100.00
25759;BME280;13604;52.496;13.456;2023-04-15T09:08:47;100292.84;;;10.65;98.75
25759;BME280;13604;52.496;13.456;2023-04-15T09:11:12;100304.47;;;10.75;97.68
25759;BME280;13604;52.496;13.456;2023-04-15T09:13:38;100304.47;;;10.75;97.74
25759;BME280;13604;52.496;13.456;2023-04-15T09:16:04;100305.31;;;10.29;99.55
25759;BME280;13604;52.496;13.456;2023-04-15T09:18:32;100307.75;;;10.47;99.33
25759;BME280;13604;52.496;13.456;2023-04-15T09:21:11;100294.38;;;10.38;98.04
25759;BME280;13604;52.496;13.456;2023-04-15T09:23:39;100306.47;;;10.36;98.82
25759;BME280;13604;52.496;13.456;2023-04-15T09:26:06;100313.75;;;10.44;98.72
25759;BME280;13604;52.496;13.456;2023-04-15T09:28:32;100308.78;;;10.29;100.00
25759;BME280;13604;52.496;13.456;2023-04-15T09:31:01;100297.31;;;10.24;99.85
25759;BME280;13604;52.496;13.456;2023-04-15T09:33:27;100320.97;;;10.30;100.00
25759;BME280;13604;52.496;13.456;2023-04-15T09:35:59;100324.88;;;10.19;100.00
25759;BME280;13604;52.496;13.456;2023-04-15T09:38:25;100309.34;;;10.00;100.00
25759;BME280;13604;52.496;13.456;2023-04-15T09:40:50;100326.06;;;10.06;100.00
25759;BME280;13604;52.496;13.456;2023-04-15T09:43:15;100332.94;;;10.04;100.00
25759;BME280;13604;52.496;13.456;2023-04-15T09:45:52;100333.53;;;9.97;100.00
25759;BME280;13604;52.496;13.456;2023-04-15T09:48:19;100325.28;;;9.86;100.00
25759;BME280;13604;52.496;13.456;2023-04-15T09:50:46;100317.84;;;9.74;100.00
25759;BME280;13604;52.496;13.456;2023-04-15T09:53:20;100333.59;;;9.77;100.00
25759;BME280;13604;52.496;13.456;2023-04-15T09:55:56;100339.75;;;9.80;100.00
25759;BME280;13604;52.496;13.456;2023-04-15T09:58:26;100337.28;;;9.83;100.00
25759;BME280;13604;52.496;13.456;2023-04-15T10:00:53;100342.09;;;9.94;100.00
25759;BME280;13604;52.496;13.456;2023-04-15T10:03:21;100346.00;;;10.06;100.00
25759;BME280;13604;52.496;13.456;2023-04-15T10:05:48;100346.91;;;10.06;100.00
25759;BME280;13604;52.496;13.456;2023-04-15T10:08:16;100339.19;;;9.87;100.00
25759;BME280;13604;52.496;13.456;2023-04-15T10:10:44;100351.09;;;9.82;100.00
25759;BME280;13604;52.496;13.456;2023-04-15T10:13:09;100355.06;;;9.73;100.00
25759;BME280;13604;52.496;13.456;2023-04-15T10:15:35;100349.88;;;9.73;100.00
25759;BME280;13604;52.496;13.456;2023-04-15T10:18:03;100323.25;;;9.58;100.00
25759;BME280;13604;52.496;13.456;2023-04-15T10:20:29;100360.53;;;9.80;100.00
25759;BME280;13604;52.496;13.456;2023-04-15T10:22:55;100352.19;;;9.87;100.00
25759;BME280;13604;52.496;13.456;2023-04-15T10:25:21;100348.34;;;10.00;100.00
25759;BME280;13604;52.496;13.456;2023-04-15T10:27:47;100352.47;;;10.16;100.00
25759;BME280;13604;52.496;13.456;2023-04-15T10:30:12;100359.97;;;10.29;100.00
25759;BME280;13604;52.496;13.456;2023-04-15T10:32:38;100352.50;;;10.37;100.00
25759;BME280;13604;52.496;13.456;2023-04-15T10:35:05;100364.50;;;10.56;100.00
25759;BME280;13604;52.496;13.456;2023-04-15T10:37:35;100364.22;;;10.71;100.00
25759;BME280;13604;52.496;13.456;2023-04-15T10:40:28;100367.06;;;10.77;100.00
25759;BME280;13604;52.496;13.456;2023-04-15T10:42:55;100369.63;;;10.53;100.00
25759;BME280;13604;52.496;13.456;2023-04-15T10:45:21;100369.84;;;10.59;100.00
25759;BME280;13604;52.496;13.456;2023-04-15T10:47:57;100365.22;;;10.52;100.00
25759;BME280;13604;52.496;13.456;2023-04-15T10:50:26;100370.56;;;10.55;100.00
25759;BME280;13604;52.496;13.456;2023-04-15T10:52:52;100371.69;;;10.61;100.00
25759;BME280;13604;52.496;13.456;2023-04-15T10:55:22;100347.16;;;10.34;100.00
25759;BME280;13604;52.496;13.456;2023-04-15T10:57:53;100350.47;;;10.52;100.00
25759;BME280;13604;52.496;13.456;2023-04-15T11:00:20;100340.91;;;10.51;100.00
25759;BME280;13604;52.496;13.456;2023-04-15T11:08:03;100380.38;;;10.62;100.00
25759;BME280;13604;52.496;13.456;2023-04-15T11:13:03;100362.78;;;10.34;100.00
25759;BME280;13604;52.496;13.456;2023-04-15T11:18:08;100394.19;;;10.17;100.00
25759;BME280;13604;52.496;13.456;2023-04-15T11:20:34;100394.31;;;9.99;100.00
25759;BME280;13604;52.496;13.456;2023-04-15T11:22:59;100397.78;;;10.00;100.00
25759;BME280;13604;52.496;13.456;2023-04-15T11:25:26;100381.09;;;9.94;100.00
25759;BME280;13604;52.496;13.456;2023-04-15T11:27:53;100400.72;;;10.07;100.00
25759;BME280;13604;52.496;13.456;2023-04-15T11:30:24;100374.75;;;9.88;100.00
25759;BME280;13604;52.496;13.456;2023-04-15T11:32:51;100384.72;;;9.98;100.00
25759;BME280;13604;52.496;13.456;2023-04-15T11:35:17;100401.44;;;10.03;100.00
25759;BME280;13604;52.496;13.456;2023-04-15T11:37:47;100413.53;;;10.03;100.00
25759;BME280;13604;52.496;13.456;2023-04-15T11:40:24;100385.09;;;9.86;100.00
25759;BME280;13604;52.496;13.456;2023-04-15T11:43:20;100414.41;;;10.24;100.00
25759;BME280;13604;52.496;13.456;2023-04-15T11:45:51;100418.00;;;10.26;100.00
25759;BME280;13604;52.496;13.456;2023-04-15T11:48:25;100409.53;;;10.11;100.00
25759;BME280;13604;52.496;13.456;2023-04-15T11:50:56;100424.97;;;10.27;100.00
25759;BME280;13604;52.496;13.456;2023-04-15T11:53:22;100397.03;;;10.02;100.00
25759;BME280;13604;52.496;13.456;2023-04-15T11:55:50;100432.69;;;10.26;100.00
25759;BME280;13604;52.496;13.456;2023-04-15T11:58:23;100399.44;;;9.98;100.00
25759;BME280;13604;52.496;13.456;2023-04-15T12:00:53;100433.47;;;10.23;100.00
25759;BME280;13604;52.496;13.456;2023-04-15T12:03:40;100436.81;;;10.21;100.00
25759;BME280;13604;52.496;13.456;2023-04-15T12:11:15;100408.91;;;10.17;100.00
25759;BME280;13604;52.496;13.456;2023-04-15T12:13:48;100414.09;;;10.36;100.00
25759;BME280;13604;52.496;13.456;2023-04-15T12:16:18;100395.97;;;10.39;100.00
25759;BME280;13604;52.496;13.456;2023-04-15T12:18:50;100448.28;;;10.66;100.00
25759;BME280;13604;52.496;13.456;2023-04-15T12:21:18;100417.69;;;10.61;100.00
25759;BME280;13604;52.496;13.456;2023-04-15T12:24:08;100420.28;;;10.83;100.00
25759;BME280;13604;52.496;13.456;2023-04-15T12:26:42;100429.28;;;11.14;100.00
25759;BME280;13604;52.496;13.456;2023-04-15T12:29:08;100443.78;;;11.54;100.00
25759;BME280;13604;52.496;13.456;2023-04-15T12:31:35;100461.69;;;11.69;100.00
25759;BME280;13604;52.496;13.456;2023-04-15T12:34:07;100456.75;;;11.77;100.00
25759;BME280;13604;52.496;13.456;2023-04-15T12:36:33;100434.91;;;11.73;99.53
25759;BME280;13604;52.496;13.456;2023-04-15T12:39:02;100464.19;;;11.90;99.19
25759;BME280;13604;52.496;13.456;2023-04-15T12:41:29;100469.72;;;11.98;99.71
25759;BME280;13604;52.496;13.456;2023-04-15T12:43:55;100424.94;;;11.62;99.29
25759;BME280;13604;52.496;13.456;2023-04-15T12:46:20;100466.41;;;12.04;98.79
25759;BME280;13604;52.496;13.456;2023-04-15T12:48:46;100461.31;;;12.07;99.38
25759;BME280;13604;52.496;13.456;2023-04-15T12:51:11;100453.53;;;12.08;99.10